Pagina principale
METAR-TAF:

METAR-TAF

Aeroporti :

Aeroporto Internazionale Norman Manley

Kingston, Giamaica

latitudine: 17-56N, longitudine: 076-47W, altezza: 3 m

Osservazione

Il bollettino è stato emesso 41 minuti fa, alle 23:00 UTC
Vento 5 kt da sud/sud-est
Temperature 29°C
Umidità 74%
Pressione 1010 hPa
Visibilità 10 km o più
Poco nuvoloso ad un'altezza di 2000 ft

METAR: MKJP 202300Z 16005KT 9999 FEW020 29/24 Q1010

Ora: 18:41 (23:41 UTC)

Previsione

Il bollettino è stato emesso 26 minuti fa, alle 23:15 UTC
Previsione valida dal 21 alle 00 UTC al 21 alle 24 UTC
Vento 10 kt da sud/sud-est
Visibilità 10 km o più
Poco nuvoloso ad un'altezza di 2200 ft
Evoluzione graduale
dal 21 alle 01 UTC al 21 alle 03 UTC
Vento 5 kt da nord
Evoluzione graduale
dal 21 alle 14 UTC al 21 alle 16 UTC
Vento 15 kt da sud/sud-est

TAF: MKJP 202315Z 2100/2124 15010KT 9999 FEW022 BECMG 2101/2103 35005KT BECMG 2114/2116 15015KT

Osservazioni e previsioni meteorologiche di più di 4000 aeroporti (messaggi METAR e TAF).

Le stazioni disponibili sono rappresentate dai dischi gialli e rossi sulla carta.

Puntare il mouse per vedere il nome della stazione.

Clicca sopra per visualizzare le osservazioni e previsioni meteorologiche.

Per cambiare la mappa : fare clic sui pulsanti verdi con una croce nera per ingrandire, il pulsante verde con un trattino per diminuire, o sulla freccia verde per le mappe adiacenti.


METAR-TAF: